Time;durP1;ratioP1;P1;durP2;ratioP2;P2;SDS_P1;SDS_P2;PMS_P1;PMS_P2;Temp;Humidity;BMP_temperature;BMP_pressure;BME280_temperature;BME280_humidity;BME280_pressure;Samples;Min_cycle;Max_cycle;Signal;HPM_P1;HPM_P2
2023/07/14 00:00:39;;;;;;;10.50;1.75;;;18.60;99.90;;;;;;5077504;23;20163;-94
2023/07/14 00:02:41;;;;;;;3.65;1.48;;;18.50;99.90;;;;;;5076675;23;21032;-92
2023/07/14 00:04:42;;;;;;;3.92;1.35;;;18.50;99.90;;;;;;5102523;23;20144;-93
2023/07/14 00:06:45;;;;;;;6.35;1.65;;;18.50;99.90;;;;;;5076159;23;20228;-93
2023/07/14 00:08:46;;;;;;;7.95;1.63;;;18.50;99.90;;;;;;5101320;23;20225;-94
2023/07/14 00:10:47;;;;;;;7.25;1.80;;;18.40;99.90;;;;;;5076217;23;20153;-93
2023/07/14 00:12:49;;;;;;;2.92;1.25;;;18.30;99.90;;;;;;5077954;23;20165;-94
2023/07/14 00:14:49;;;;;;;7.25;1.92;;;18.30;99.90;;;;;;5100189;23;20133;-93
2023/07/14 00:16:52;;;;;;;6.75;2.00;;;18.20;99.90;;;;;;5102377;23;20164;-93
2023/07/14 00:18:53;;;;;;;9.80;2.08;;;18.20;99.90;;;;;;5103372;23;20177;-94
2023/07/14 00:20:56;;;;;;;6.75;1.98;;;18.20;99.90;;;;;;5076096;23;20150;-94
2023/07/14 00:22:58;;;;;;;7.45;1.90;;;18.20;99.90;;;;;;5080429;23;20239;-93
2023/07/14 00:24:58;;;;;;;8.32;2.53;;;18.20;99.90;;;;;;5099801;23;20157;-93
2023/07/14 00:27:00;;;;;;;4.72;1.88;;;18.10;99.90;;;;;;5099763;23;20276;-94
2023/07/14 00:29:14;;;;;;;9.45;2.45;;;18.00;99.90;;;;;;5102176;23;20184;-93
2023/07/14 00:31:20;;;;;;;7.72;2.72;;;18.00;99.90;;;;;;5098140;23;20157;-93
2023/07/14 00:33:21;;;;;;;8.32;2.08;;;17.90;99.90;;;;;;5124450;23;20233;-93
2023/07/14 00:35:28;;;;;;;9.88;2.58;;;17.90;99.90;;;;;;5121963;23;20247;-94
2023/07/14 00:37:28;;;;;;;12.65;2.70;;;17.90;99.90;;;;;;5098539;23;20149;-93
2023/07/14 00:39:31;;;;;;;6.13;2.17;;;17.90;99.90;;;;;;5122751;23;20638;-92
2023/07/14 00:41:31;;;;;;;12.68;2.70;;;18.00;99.90;;;;;;5097994;23;20153;-92
2023/07/14 00:43:34;;;;;;;8.07;2.60;;;17.90;99.90;;;;;;5103997;23;20228;-92
2023/07/14 00:45:39;;;;;;;6.47;2.50;;;17.90;99.90;;;;;;5101392;23;20165;-91
2023/07/14 00:47:42;;;;;;;7.13;3.15;;;17.80;99.90;;;;;;5129426;23;20283;-93
2023/07/14 00:49:43;;;;;;;8.00;2.95;;;17.80;99.90;;;;;;5098162;23;20159;-93
2023/07/14 00:51:45;;;;;;;10.55;3.20;;;17.80;99.90;;;;;;5099985;23;20652;-95
2023/07/14 00:53:51;;;;;;;8.68;3.25;;;17.90;99.90;;;;;;5122411;23;20148;-93
2023/07/14 00:56:19;;;;;;;8.70;3.05;;;17.90;99.90;;;;;;5098745;23;20156;-93
2023/07/14 00:58:25;;;;;;;9.07;3.47;;;17.80;99.90;;;;;;5099109;23;20200;-95
2023/07/14 01:00:30;;;;;;;12.00;3.63;;;17.80;99.90;;;;;;5126261;23;20148;-95
2023/07/14 01:02:31;;;;;;;8.10;3.22;;;17.90;99.90;;;;;;5107607;23;20161;-92
2023/07/14 01:04:33;;;;;;;11.20;3.42;;;17.80;99.90;;;;;;5122898;23;20151;-92
2023/07/14 01:06:39;;;;;;;11.23;3.38;;;17.90;99.90;;;;;;5125248;23;20196;-93
2023/07/14 01:08:55;;;;;;;8.93;3.17;;;17.80;99.90;;;;;;5099235;23;20188;-93
2023/07/14 01:10:56;;;;;;;8.80;3.30;;;17.80;99.90;;;;;;5101496;23;20587;-96
2023/07/14 01:13:07;;;;;;;8.95;3.10;;;17.90;99.90;;;;;;5098764;23;20152;-96
2023/07/14 01:15:08;;;;;;;8.38;3.45;;;17.90;99.90;;;;;;5123731;23;20160;-92
2023/07/14 01:17:09;;;;;;;9.10;3.15;;;17.80;99.90;;;;;;5099111;23;20155;-92
2023/07/14 01:19:36;;;;;;;9.95;3.00;;;17.80;99.90;;;;;;5126354;23;20156;-92
2023/07/14 01:21:38;;;;;;;8.77;3.20;;;17.80;99.90;;;;;;5101677;23;20159;-93
2023/07/14 01:24:00;;;;;;;9.88;3.20;;;17.80;99.90;;;;;;5105663;23;20161;-93
2023/07/14 01:26:25;;;;;;;7.63;3.10;;;17.90;99.90;;;;;;5108201;23;20157;-93
2023/07/14 01:28:36;;;;;;;4.70;2.75;;;17.90;99.90;;;;;;5135582;23;20190;-93
2023/07/14 01:30:39;;;;;;;7.05;2.80;;;17.80;99.90;;;;;;5107896;23;20136;-92
2023/07/14 01:32:45;;;;;;;10.90;2.90;;;17.80;99.90;;;;;;5132140;23;20187;-93
2023/07/14 01:34:47;;;;;;;9.15;2.95;;;17.70;99.90;;;;;;5132559;23;20148;-93
2023/07/14 01:36:49;;;;;;;7.35;2.88;;;17.70;99.90;;;;;;5131276;23;20160;-92
2023/07/14 01:38:52;;;;;;;10.55;3.03;;;17.60;99.90;;;;;;5107634;23;20161;-93
2023/07/14 01:40:53;;;;;;;9.18;2.78;;;17.70;99.90;;;;;;5127669;23;20223;-93
2023/07/14 01:43:02;;;;;;;11.27;3.13;;;17.70;99.90;;;;;;5100384;23;20153;-93
2023/07/14 01:45:04;;;;;;;8.35;2.88;;;17.60;99.90;;;;;;5104199;23;20163;-93
2023/07/14 01:47:08;;;;;;;9.20;3.17;;;17.60;99.90;;;;;;5099206;23;20216;-92
2023/07/14 01:49:36;;;;;;;9.45;2.60;;;17.60;99.90;;;;;;5125077;23;20183;-93
2023/07/14 01:51:42;;;;;;;8.90;2.70;;;17.70;99.90;;;;;;5110475;23;20212;-93
2023/07/14 01:53:48;;;;;;;10.38;2.90;;;17.70;99.90;;;;;;5124197;23;20208;-93
2023/07/14 01:55:51;;;;;;;8.07;2.70;;;17.80;99.90;;;;;;5131357;23;20136;-94
2023/07/14 01:57:55;;;;;;;11.40;2.40;;;17.80;99.90;;;;;;5102712;23;20157;-93
2023/07/14 02:00:04;;;;;;;10.40;2.80;;;17.70;99.90;;;;;;5129807;23;20208;-94
2023/07/14 02:02:38;;;;;;;10.93;2.75;;;17.60;99.90;;;;;;5132179;22;20144;-92
2023/07/14 02:04:40;;;;;;;7.78;2.75;;;17.60;99.90;;;;;;5105531;23;20165;-92
2023/07/14 02:06:41;;;;;;;9.30;2.83;;;17.50;99.90;;;;;;5129027;23;20219;-91
2023/07/14 02:08:44;;;;;;;9.02;2.63;;;17.40;99.90;;;;;;5097841;23;20651;-92
2023/07/14 02:10:45;;;;;;;11.50;3.10;;;17.40;99.90;;;;;;5102978;23;20189;-93
2023/07/14 02:12:48;;;;;;;10.73;2.83;;;17.40;99.90;;;;;;5102735;23;20175;-93
2023/07/14 02:15:00;;;;;;;10.38;3.00;;;17.30;99.90;;;;;;5127203;23;20160;-94
2023/07/14 02:17:05;;;;;;;9.45;3.03;;;17.30;99.90;;;;;;5102682;23;20148;-94
2023/07/14 02:19:15;;;;;;;10.05;3.00;;;17.20;99.90;;;;;;5126953;23;20176;-93
2023/07/14 02:21:29;;;;;;;12.80;3.00;;;17.20;99.90;;;;;;5128704;23;20231;-94
2023/07/14 02:23:30;;;;;;;8.85;2.83;;;17.10;99.90;;;;;;5101633;23;20216;-92
2023/07/14 02:25:41;;;;;;;9.30;3.17;;;17.10;99.90;;;;;;5102861;23;20137;-93
2023/07/14 02:27:42;;;;;;;7.10;3.15;;;17.10;99.90;;;;;;5128445;23;20191;-92
2023/07/14 02:29:43;;;;;;;10.27;2.90;;;17.10;99.90;;;;;;5099479;23;20164;-94
2023/07/14 02:31:48;;;;;;;7.80;2.92;;;17.10;99.90;;;;;;5099565;23;20153;-93
2023/07/14 02:33:51;;;;;;;9.70;2.85;;;17.10;99.90;;;;;;5098649;23;20181;-94
2023/07/14 02:36:17;;;;;;;8.18;3.13;;;17.10;99.90;;;;;;5124146;23;20527;-93
2023/07/14 02:38:18;;;;;;;14.38;3.35;;;17.10;99.90;;;;;;5102337;23;20207;-96
2023/07/14 02:40:19;;;;;;;9.70;2.70;;;17.10;99.90;;;;;;5100433;23;20153;-92
2023/07/14 02:42:20;;;;;;;7.95;2.65;;;17.10;99.90;;;;;;5104896;23;20152;-92
2023/07/14 02:44:25;;;;;;;6.95;2.83;;;17.00;99.90;;;;;;5101691;23;20180;-96
2023/07/14 02:46:35;;;;;;;7.68;2.75;;;17.00;99.90;;;;;;5124528;23;20248;-92
2023/07/14 02:48:42;;;;;;;6.60;2.72;;;17.00;99.90;;;;;;5100101;23;20156;-94
2023/07/14 02:50:43;;;;;;;9.63;3.20;;;17.00;99.90;;;;;;5124695;23;20668;-94
2023/07/14 02:52:44;;;;;;;9.45;3.20;;;17.00;99.90;;;;;;5103457;23;20145;-94
2023/07/14 02:54:45;;;;;;;13.15;3.17;;;16.90;99.90;;;;;;5105212;23;20148;-93
2023/07/14 02:56:46;;;;;;;7.15;2.90;;;16.90;99.90;;;;;;5105250;23;20153;-93
2023/07/14 02:58:49;;;;;;;9.38;3.05;;;16.90;99.90;;;;;;5104428;23;20658;-92
2023/07/14 03:00:51;;;;;;;12.57;3.33;;;16.80;99.90;;;;;;5103303;23;20176;-93
2023/07/14 03:02:52;;;;;;;11.80;3.58;;;16.90;99.90;;;;;;5105013;23;20171;-93
2023/07/14 03:04:53;;;;;;;8.93;3.28;;;16.80;99.90;;;;;;5105621;23;20133;-92
2023/07/14 03:06:54;;;;;;;7.68;3.35;;;16.80;99.90;;;;;;5103642;23;20279;-93
2023/07/14 03:08:55;;;;;;;10.07;3.78;;;16.70;99.90;;;;;;5102118;23;20153;-91
2023/07/14 03:10:58;;;;;;;13.65;3.15;;;16.70;99.90;;;;;;5105782;23;20137;-93
2023/07/14 03:12:59;;;;;;;10.50;2.97;;;16.70;99.90;;;;;;5099896;23;20211;-92
2023/07/14 03:14:59;;;;;;;10.13;3.28;;;16.60;99.90;;;;;;5103693;23;20180;-95
2023/07/14 03:17:00;;;;;;;10.00;3.17;;;16.60;99.90;;;;;;5105166;23;20220;-96
2023/07/14 03:19:01;;;;;;;7.00;2.97;;;16.60;99.90;;;;;;5106294;23;20165;-93
2023/07/14 03:21:04;;;;;;;7.78;2.65;;;16.60;99.90;;;;;;5103431;23;20181;-94
2023/07/14 03:23:04;;;;;;;14.23;3.78;;;16.60;99.90;;;;;;5102862;23;20160;-93
2023/07/14 03:25:06;;;;;;;14.15;3.35;;;16.60;99.90;;;;;;5097901;23;20144;-93
2023/07/14 03:27:07;;;;;;;12.05;3.17;;;16.60;99.90;;;;;;5100878;23;20219;-92
2023/07/14 03:29:07;;;;;;;11.70;3.70;;;16.50;99.90;;;;;;5125485;23;20192;-94
2023/07/14 03:31:09;;;;;;;15.07;3.42;;;16.50;99.90;;;;;;5098960;23;20196;-93
2023/07/14 03:33:09;;;;;;;8.18;3.03;;;16.50;99.90;;;;;;5097857;23;20153;-93
2023/07/14 03:35:10;;;;;;;9.90;3.17;;;16.60;99.90;;;;;;5124202;23;20188;-93
2023/07/14 03:37:11;;;;;;;11.45;3.42;;;16.50;99.90;;;;;;5107498;23;20148;-92
2023/07/14 03:39:24;;;;;;;9.13;3.28;;;16.60;99.90;;;;;;5104941;23;20247;-93
2023/07/14 03:41:25;;;;;;;11.55;3.58;;;16.70;99.90;;;;;;5088995;23;20156;-93
2023/07/14 03:43:26;;;;;;;8.27;2.90;;;16.60;99.90;;;;;;5102958;23;20165;-94
2023/07/14 03:45:27;;;;;;;7.55;3.15;;;16.60;99.90;;;;;;5100920;23;20156;-95
2023/07/14 03:47:32;;;;;;;12.05;3.58;;;16.50;99.90;;;;;;5148479;23;20254;-91
2023/07/14 03:49:34;;;;;;;9.27;3.33;;;16.50;99.90;;;;;;5103663;23;20148;-92
2023/07/14 03:51:35;;;;;;;11.18;3.20;;;16.50;99.90;;;;;;5104971;23;20184;-95
2023/07/14 03:53:37;;;;;;;12.00;3.22;;;16.50;99.90;;;;;;5102598;23;20659;-91
2023/07/14 03:55:38;;;;;;;7.90;3.03;;;16.50;99.90;;;;;;5098428;23;20231;-93
2023/07/14 03:57:42;;;;;;;7.93;3.28;;;16.50;99.90;;;;;;5108010;23;20161;-92
2023/07/14 03:59:43;;;;;;;10.10;3.40;;;16.60;99.90;;;;;;5113924;23;20272;-92
2023/07/14 04:01:44;;;;;;;8.73;3.00;;;16.60;99.90;;;;;;5108871;23;20157;-93
2023/07/14 04:03:50;;;;;;;12.40;3.53;;;16.50;99.90;;;;;;5103139;23;20141;-95
2023/07/14 04:05:59;;;;;;;10.93;3.13;;;16.50;99.90;;;;;;5105522;23;20141;-92
2023/07/14 04:08:24;;;;;;;9.73;3.42;;;16.50;99.90;;;;;;5099286;23;20224;-93
2023/07/14 04:10:25;;;;;;;13.75;3.25;;;16.50;99.90;;;;;;5098929;23;20153;-94
2023/07/14 04:12:26;;;;;;;10.98;3.00;;;16.50;99.90;;;;;;5124464;23;20162;-92
2023/07/14 04:14:27;;;;;;;7.32;3.30;;;16.50;99.90;;;;;;5100959;23;20235;-95
2023/07/14 04:16:28;;;;;;;11.65;3.15;;;16.60;99.90;;;;;;5129883;23;20136;-93
2023/07/14 04:18:29;;;;;;;13.35;3.50;;;16.50;99.90;;;;;;5104688;23;20173;-92
2023/07/14 04:20:34;;;;;;;7.45;2.95;;;16.50;99.90;;;;;;5126890;23;20212;-93
2023/07/14 04:22:35;;;;;;;9.60;2.50;;;16.60;99.90;;;;;;5109498;23;20171;-93
2023/07/14 04:24:36;;;;;;;9.77;2.83;;;16.80;99.90;;;;;;5108876;23;20536;-91
2023/07/14 04:26:38;;;;;;;14.27;3.63;;;17.00;99.90;;;;;;5127851;23;20171;-92
2023/07/14 04:28:39;;;;;;;10.13;2.78;;;17.00;99.90;;;;;;5094992;23;20191;-93
2023/07/14 04:30:40;;;;;;;7.68;3.45;;;16.90;99.90;;;;;;5119408;23;20682;-94
2023/07/14 04:32:42;;;;;;;10.00;3.22;;;16.80;99.90;;;;;;5119366;23;20206;-93
2023/07/14 04:34:45;;;;;;;10.25;3.53;;;16.70;99.90;;;;;;5118913;23;20148;-93
2023/07/14 04:36:47;;;;;;;10.73;3.20;;;16.70;99.90;;;;;;5094608;23;20153;-92
2023/07/14 04:39:03;;;;;;;8.63;3.20;;;16.70;99.90;;;;;;5093992;23;20765;-93
2023/07/14 04:41:04;;;;;;;8.73;3.22;;;16.70;99.90;;;;;;5093889;23;20160;-92
2023/07/14 04:43:06;;;;;;;14.88;3.30;;;16.60;99.90;;;;;;5094413;23;20215;-93
2023/07/14 04:45:08;;;;;;;8.20;3.55;;;16.70;99.90;;;;;;5094275;23;20164;-92
2023/07/14 04:47:09;;;;;;;10.27;3.40;;;16.70;99.90;;;;;;5094563;23;20185;-93
2023/07/14 04:49:11;;;;;;;9.20;3.75;;;16.80;99.90;;;;;;5118453;23;20182;-94
2023/07/14 04:51:11;;;;;;;8.27;3.28;;;16.80;99.90;;;;;;5094814;23;20457;-93
2023/07/14 04:53:14;;;;;;;12.07;3.58;;;16.90;99.90;;;;;;5119176;23;20157;-93
2023/07/14 04:55:15;;;;;;;7.60;3.25;;;17.10;99.90;;;;;;5094428;23;20155;-93
2023/07/14 04:57:17;;;;;;;6.65;3.30;;;17.20;99.90;;;;;;5095183;23;20149;-93
2023/07/14 04:59:18;;;;;;;12.32;3.50;;;17.40;99.90;;;;;;5096768;23;20227;-94
2023/07/14 05:01:18;;;;;;;15.07;3.38;;;17.40;99.90;;;;;;5096168;23;20595;-94
2023/07/14 05:03:19;;;;;;;10.05;3.63;;;17.50;99.90;;;;;;5096785;23;20219;-92
2023/07/14 05:05:22;;;;;;;10.82;3.78;;;17.70;99.90;;;;;;5096416;23;20200;-93
2023/07/14 05:07:23;;;;;;;14.15;3.90;;;17.90;99.90;;;;;;5096406;23;20189;-91
2023/07/14 05:09:24;;;;;;;10.85;3.90;;;18.20;99.90;;;;;;5120677;23;20314;-91
2023/07/14 05:11:26;;;;;;;11.90;3.78;;;18.40;99.90;;;;;;5096040;23;20175;-90
2023/07/14 05:13:26;;;;;;;15.98;3.97;;;18.50;99.90;;;;;;5096422;23;20580;-91
2023/07/14 05:15:27;;;;;;;13.18;3.33;;;18.60;99.90;;;;;;5096866;23;20149;-91
2023/07/14 05:17:28;;;;;;;11.75;3.05;;;18.80;99.90;;;;;;5098324;23;20584;-91
2023/07/14 05:19:28;;;;;;;15.73;3.90;;;18.90;99.90;;;;;;5121117;23;20172;-91
2023/07/14 05:21:29;;;;;;;10.00;3.22;;;19.00;99.90;;;;;;5098868;23;20156;-92
2023/07/14 05:23:32;;;;;;;9.48;4.00;;;19.10;99.90;;;;;;5096152;23;20157;-91
2023/07/14 05:25:34;;;;;;;11.00;3.53;;;19.00;99.90;;;;;;5096292;23;20600;-92
2023/07/14 05:27:36;;;;;;;19.70;4.15;;;18.90;99.90;;;;;;5122333;23;20215;-92
2023/07/14 05:29:36;;;;;;;12.30;3.40;;;18.90;99.90;;;;;;5096068;23;20165;-92
2023/07/14 05:31:37;;;;;;;9.88;3.20;;;18.70;99.90;;;;;;5096322;23;20160;-91
2023/07/14 05:33:38;;;;;;;8.82;3.83;;;18.80;99.90;;;;;;5122450;23;20195;-91
2023/07/14 05:35:39;;;;;;;7.78;3.80;;;18.70;99.90;;;;;;5096453;23;20196;-90
2023/07/14 05:37:41;;;;;;;12.18;3.72;;;18.70;99.90;;;;;;5121997;23;20535;-91
2023/07/14 05:39:42;;;;;;;13.60;3.65;;;18.70;99.90;;;;;;5097289;23;20177;-92
2023/07/14 05:41:43;;;;;;;10.98;3.50;;;18.60;99.90;;;;;;5097150;23;20196;-91
2023/07/14 05:43:44;;;;;;;10.80;3.70;;;18.40;99.90;;;;;;5121453;23;20145;-91
2023/07/14 05:45:47;;;;;;;12.48;3.80;;;18.40;99.90;;;;;;5097019;23;20153;-90
2023/07/14 05:47:47;;;;;;;14.02;3.70;;;18.50;99.90;;;;;;5096109;23;20189;-91
2023/07/14 05:49:48;;;;;;;12.38;3.65;;;18.50;99.90;;;;;;5121016;23;20179;-93
2023/07/14 05:51:54;;;;;;;8.60;3.40;;;18.70;99.90;;;;;;5120837;23;20169;-92
2023/07/14 05:53:55;;;;;;;10.82;3.40;;;18.80;99.90;;;;;;5096508;23;20168;-91
2023/07/14 05:55:57;;;;;;;7.40;3.03;;;18.80;99.90;;;;;;5120422;23;20152;-92
2023/07/14 05:57:57;;;;;;;10.68;3.42;;;18.90;99.90;;;;;;5095853;23;20157;-92
2023/07/14 05:59:58;;;;;;;8.48;3.38;;;19.00;99.90;;;;;;5097372;23;20716;-90
2023/07/14 06:01:59;;;;;;;15.18;3.70;;;19.20;99.90;;;;;;5096629;23;20240;-92
2023/07/14 06:04:00;;;;;;;11.60;3.90;;;19.00;99.90;;;;;;5098192;23;20149;-92
2023/07/14 06:06:05;;;;;;;13.00;3.45;;;19.00;99.90;;;;;;5096956;23;20174;-92
2023/07/14 06:08:06;;;;;;;20.95;3.92;;;19.00;99.90;;;;;;5095491;23;20196;-91
2023/07/14 06:10:08;;;;;;;10.88;3.22;;;19.10;99.90;;;;;;5121809;23;20202;-91
2023/07/14 06:12:11;;;;;;;9.57;3.55;;;19.10;99.90;;;;;;5097059;23;20545;-92
2023/07/14 06:14:12;;;;;;;14.23;3.60;;;19.20;99.90;;;;;;5120109;23;20203;-92
2023/07/14 06:16:13;;;;;;;9.75;3.58;;;19.20;99.90;;;;;;5120420;23;20234;-92
2023/07/14 06:18:14;;;;;;;9.63;3.80;;;19.30;99.90;;;;;;5125612;23;20480;-91
2023/07/14 06:20:14;;;;;;;8.50;3.65;;;19.30;99.90;;;;;;5122155;23;20710;-91
2023/07/14 06:22:15;;;;;;;12.88;3.85;;;19.30;99.90;;;;;;5096432;23;20146;-91
2023/07/14 06:24:16;;;;;;;10.20;3.40;;;19.50;99.90;;;;;;5095705;23;20584;-92
2023/07/14 06:26:20;;;;;;;10.15;3.03;;;19.40;99.90;;;;;;5095276;23;20153;-92
2023/07/14 06:28:21;;;;;;;15.35;3.03;;;19.50;99.90;;;;;;5095763;23;20176;-92
2023/07/14 06:30:25;;;;;;;12.82;3.22;;;19.50;99.90;;;;;;5096116;23;20191;-91
2023/07/14 06:32:25;;;;;;;14.13;3.05;;;19.40;99.90;;;;;;5096921;23;20232;-92
2023/07/14 06:34:26;;;;;;;9.32;2.90;;;19.30;99.90;;;;;;5120981;23;20156;-92
2023/07/14 06:36:27;;;;;;;12.25;2.80;;;19.40;99.90;;;;;;5096103;23;20576;-92
2023/07/14 06:38:28;;;;;;;8.02;3.03;;;19.50;99.90;;;;;;5121212;23;20168;-91
2023/07/14 06:40:28;;;;;;;9.35;3.30;;;19.70;99.90;;;;;;5121977;23;20535;-91
2023/07/14 06:42:29;;;;;;;8.18;2.65;;;19.80;99.90;;;;;;5096425;23;20240;-92
2023/07/14 06:44:30;;;;;;;7.35;2.47;;;19.90;99.90;;;;;;5095601;23;20160;-93
2023/07/14 06:46:31;;;;;;;6.57;2.60;;;20.00;99.90;;;;;;5096312;23;20181;-91
2023/07/14 06:48:33;;;;;;;10.95;2.63;;;20.10;99.90;;;;;;5070769;23;20193;-91
2023/07/14 06:50:37;;;;;;;5.18;2.22;;;20.30;99.90;;;;;;5096251;23;20195;-92
2023/07/14 06:52:38;;;;;;;12.85;2.45;;;20.50;99.90;;;;;;5119929;23;20469;-92
2023/07/14 06:54:39;;;;;;;11.52;3.25;;;20.90;99.90;;;;;;5119665;23;20222;-92
2023/07/14 06:56:40;;;;;;;7.95;2.40;;;21.10;99.90;;;;;;5096107;23;20160;-92
2023/07/14 06:58:41;;;;;;;9.02;2.75;;;21.30;99.90;;;;;;5095121;23;20189;-91
2023/07/14 07:00:42;;;;;;;8.63;2.58;;;21.40;99.90;;;;;;5095469;23;20232;-92
2023/07/14 07:02:43;;;;;;;11.13;2.40;;;21.60;99.90;;;;;;5094978;23;20153;-92
2023/07/14 07:04:44;;;;;;;9.65;2.20;;;21.80;99.90;;;;;;5119787;23;20156;-92
2023/07/14 07:06:45;;;;;;;11.50;2.38;;;22.10;99.90;;;;;;5095722;23;20247;-92
2023/07/14 07:08:46;;;;;;;7.20;2.13;;;22.20;99.90;;;;;;5096543;23;20196;-93
2023/07/14 07:10:48;;;;;;;9.80;2.40;;;22.00;99.90;;;;;;5120014;23;20181;-93
2023/07/14 07:12:48;;;;;;;9.80;2.20;;;22.10;99.90;;;;;;5097285;23;20162;-92
2023/07/14 07:14:50;;;;;;;10.00;2.38;;;22.20;99.90;;;;;;5095998;23;20161;-91
2023/07/14 07:16:51;;;;;;;6.63;2.38;;;22.40;99.90;;;;;;5096391;23;20156;-93
2023/07/14 07:18:51;;;;;;;6.38;2.10;;;22.60;99.90;;;;;;5094534;23;20224;-91
2023/07/14 07:20:52;;;;;;;6.38;1.98;;;22.60;99.90;;;;;;5095012;23;20232;-93
2023/07/14 07:22:53;;;;;;;10.88;2.33;;;23.00;99.90;;;;;;5119444;23;20614;-92
2023/07/14 07:24:54;;;;;;;10.55;2.15;;;23.70;99.90;;;;;;5120992;23;20132;-92
2023/07/14 07:26:55;;;;;;;8.32;2.20;;;25.20;99.90;;;;;;5119659;23;20247;-93
2023/07/14 07:28:57;;;;;;;5.75;2.00;;;27.00;99.90;;;;;;5094960;23;20169;-91
2023/07/14 07:30:57;;;;;;;9.70;2.15;;;27.90;99.90;;;;;;5094738;23;20153;-93
2023/07/14 07:32:58;;;;;;;5.45;2.20;;;27.90;99.90;;;;;;5096920;23;20149;-92
2023/07/14 07:35:00;;;;;;;6.80;2.25;;;27.50;99.90;;;;;;5097555;23;20153;-92
2023/07/14 07:37:01;;;;;;;7.93;1.90;;;27.90;99.90;;;;;;5114860;23;20147;-91
2023/07/14 07:39:02;;;;;;;9.50;2.17;;;28.10;99.90;;;;;;5133655;23;20172;-92
2023/07/14 07:41:02;;;;;;;8.25;2.00;;;29.10;99.90;;;;;;5095498;23;20180;-92
2023/07/14 07:43:03;;;;;;;8.93;2.10;;;28.90;99.90;;;;;;5094597;23;20157;-93
2023/07/14 07:45:04;;;;;;;6.38;1.65;;;28.60;99.90;;;;;;5094371;23;20592;-92
2023/07/14 07:47:05;;;;;;;6.10;1.92;;;28.20;99.90;;;;;;5095519;23;20752;-93
2023/07/14 07:49:06;;;;;;;5.88;1.92;;;28.40;99.90;;;;;;5095071;23;20164;-91
2023/07/14 07:51:07;;;;;;;3.47;1.52;;;28.90;99.90;;;;;;5119106;23;20291;-93
2023/07/14 07:53:08;;;;;;;7.22;2.08;;;30.00;99.90;;;;;;5119319;23;20152;-93
2023/07/14 07:55:09;;;;;;;6.20;2.05;;;30.50;99.90;;;;;;5095407;23;20152;-93
2023/07/14 07:57:10;;;;;;;5.95;1.85;;;30.20;99.90;;;;;;5095039;23;20172;-93
2023/07/14 07:59:15;;;;;;;4.80;2.00;;;29.60;99.90;;;;;;5119723;23;20168;-92
2023/07/14 08:01:23;;;;;;;7.57;1.85;;;30.30;99.90;;;;;;5095865;23;20153;-94
2023/07/14 08:03:24;;;;;;;6.15;1.98;;;30.10;99.90;;;;;;5071408;23;20291;-93
2023/07/14 08:05:25;;;;;;;5.00;2.13;;;29.80;99.90;;;;;;5094496;23;20149;-93
2023/07/14 08:07:26;;;;;;;8.93;1.98;;;29.60;99.90;;;;;;5119138;23;20658;-93
2023/07/14 08:09:27;;;;;;;7.00;2.00;;;30.30;99.90;;;;;;5094497;23;20184;-92
2023/07/14 08:11:28;;;;;;;6.85;2.20;;;31.50;99.90;;;;;;5119152;23;20191;-94
2023/07/14 08:13:30;;;;;;;8.80;2.40;;;31.40;99.90;;;;;;5095816;23;20156;-94
2023/07/14 08:15:31;;;;;;;5.35;1.70;;;30.90;99.90;;;;;;5094718;23;20153;-95
2023/07/14 08:17:32;;;;;;;8.05;2.03;;;31.30;99.90;;;;;;5120864;23;20144;-94
2023/07/14 08:19:32;;;;;;;6.78;2.08;;;30.80;99.90;;;;;;5095635;23;20184;-93
2023/07/14 08:21:35;;;;;;;9.20;2.20;;;30.80;99.90;;;;;;5095081;23;20220;-90
2023/07/14 08:23:37;;;;;;;4.55;1.83;;;30.40;99.90;;;;;;5096405;23;20153;-93
2023/07/14 08:25:38;;;;;;;8.77;1.92;;;29.90;99.90;;;;;;5120603;23;20144;-95
2023/07/14 08:27:38;;;;;;;4.85;2.00;;;30.70;99.90;;;;;;5094647;23;20195;-94
2023/07/14 08:29:39;;;;;;;7.03;1.83;;;31.30;99.90;;;;;;5119647;23;20168;-93
2023/07/14 08:31:40;;;;;;;6.95;1.77;;;31.40;99.90;;;;;;5094762;23;20153;-94
2023/07/14 08:33:43;;;;;;;6.88;2.08;;;30.80;99.90;;;;;;5094219;23;20639;-93
2023/07/14 08:35:45;;;;;;;6.18;1.73;;;30.30;99.90;;;;;;5094871;23;20203;-94
2023/07/14 08:37:45;;;;;;;6.22;1.73;;;29.60;99.90;;;;;;5095024;23;20211;-94
2023/07/14 08:39:46;;;;;;;6.75;1.60;;;29.10;99.90;;;;;;5094717;23;20535;-94
2023/07/14 08:41:52;;;;;;;7.55;1.80;;;29.10;99.90;;;;;;5094643;23;20148;-94
2023/07/14 08:44:08;;;;;;;7.28;1.92;;;29.40;99.90;;;;;;5095308;23;20193;-94
2023/07/14 08:46:33;;;;;;;7.93;1.90;;;28.90;99.90;;;;;;5094793;23;20160;-93
2023/07/14 08:48:41;;;;;;;5.18;1.77;;;29.20;99.90;;;;;;5093833;23;20543;-93
2023/07/14 08:50:46;;;;;;;6.78;1.88;;;28.80;99.90;;;;;;5086470;23;20248;-93
2023/07/14 08:52:51;;;;;;;5.80;1.88;;;28.50;99.90;;;;;;5095650;23;20659;-94
2023/07/14 08:55:04;;;;;;;4.38;1.48;;;28.30;99.90;;;;;;5069769;23;20201;-93
2023/07/14 08:57:15;;;;;;;4.60;1.95;;;28.40;99.90;;;;;;5094320;23;20553;-93
2023/07/14 08:59:35;;;;;;;7.85;1.98;;;28.40;99.90;;;;;;5069742;23;20172;-94
2023/07/14 09:01:48;;;;;;;5.78;1.92;;;27.90;99.90;;;;;;5070746;23;20173;-94
2023/07/14 09:03:53;;;;;;;6.88;2.03;;;27.90;99.90;;;;;;5070739;23;20153;-93
2023/07/14 09:06:01;;;;;;;8.48;1.70;;;27.90;99.90;;;;;;5094736;23;20655;-94
2023/07/14 09:08:03;;;;;;;6.32;1.80;;;27.90;99.90;;;;;;5069499;23;20212;-94
2023/07/14 09:10:05;;;;;;;4.03;1.60;;;27.20;99.90;;;;;;5070953;23;20240;-93
2023/07/14 09:12:41;;;;;;;6.57;1.70;;;26.60;99.90;;;;;;5069779;23;20455;-93
2023/07/14 09:14:50;;;;;;;6.50;1.67;;;26.90;99.90;;;;;;5095163;23;20156;-94
2023/07/14 09:17:15;;;;;;;6.43;2.00;;;26.80;99.90;;;;;;5070011;23;20153;-94
2023/07/14 09:19:50;;;;;;;7.65;1.80;;;26.70;99.90;;;;;;5070132;23;20197;-94
2023/07/14 09:22:02;;;;;;;4.85;1.70;;;26.80;99.90;;;;;;5070337;23;20188;-94
2023/07/14 09:24:06;;;;;;;5.75;1.52;;;26.40;99.90;;;;;;5072281;23;20154;-92
2023/07/14 09:26:13;;;;;;;6.45;1.63;;;26.40;99.90;;;;;;5071217;23;20162;-93
2023/07/14 09:28:19;;;;;;;4.05;1.60;;;26.80;99.90;;;;;;5070456;23;20195;-94
2023/07/14 09:30:26;;;;;;;6.78;1.98;;;26.90;99.90;;;;;;5071046;23;20153;-93
2023/07/14 09:32:37;;;;;;;8.65;1.90;;;26.80;99.90;;;;;;5096058;23;20153;-93
2023/07/14 09:35:09;;;;;;;7.10;1.50;;;26.90;99.90;;;;;;5070658;23;20454;-93
2023/07/14 09:37:21;;;;;;;6.88;1.67;;;27.00;99.90;;;;;;5072145;23;20622;-93
2023/07/14 09:39:39;;;;;;;8.95;1.85;;;26.80;99.90;;;;;;5071921;23;20260;-94
2023/07/14 09:41:40;;;;;;;6.15;2.00;;;26.50;99.90;;;;;;5094379;23;20160;-91
2023/07/14 09:43:41;;;;;;;5.75;1.90;;;26.10;99.90;;;;;;5099955;23;20149;-92
2023/07/14 09:45:42;;;;;;;10.75;2.47;;;25.70;99.90;;;;;;5072894;23;20173;-93
2023/07/14 09:47:45;;;;;;;3.25;1.80;;;25.60;99.90;;;;;;5071720;23;20189;-93
2023/07/14 09:49:51;;;;;;;5.15;1.75;;;25.70;99.90;;;;;;5097439;23;20239;-92
2023/07/14 09:52:11;;;;;;;6.57;1.58;;;25.90;99.90;;;;;;5095343;23;20187;-92
2023/07/14 09:54:12;;;;;;;2.38;1.40;;;25.80;99.90;;;;;;5126638;23;20171;-93
2023/07/14 09:56:20;;;;;;;6.03;2.00;;;26.10;99.90;;;;;;5108412;23;20153;-93
2023/07/14 09:58:25;;;;;;;4.63;1.60;;;26.30;99.90;;;;;;5141397;23;20164;-94
2023/07/14 10:00:37;;;;;;;8.25;2.05;;;26.30;99.90;;;;;;5095776;23;20210;-93
2023/07/14 10:02:38;;;;;;;9.32;1.88;;;26.30;99.90;;;;;;5122835;23;20222;-92
2023/07/14 10:04:39;;;;;;;6.13;1.50;;;26.30;99.90;;;;;;5096895;23;20145;-93
2023/07/14 10:06:41;;;;;;;7.05;1.73;;;26.30;99.90;;;;;;5096984;23;20698;-94
2023/07/14 10:08:50;;;;;;;17.25;2.17;;;26.40;99.90;;;;;;5121244;23;20204;-94
2023/07/14 10:10:52;;;;;;;7.45;1.95;;;26.50;99.90;;;;;;5095645;23;20157;-94
2023/07/14 10:12:53;;;;;;;5.18;1.70;;;26.00;99.90;;;;;;5096626;23;20152;-94
2023/07/14 10:14:53;;;;;;;3.88;1.50;;;26.10;99.90;;;;;;5120944;23;20152;-94
2023/07/14 10:16:56;;;;;;;5.40;1.50;;;25.80;99.90;;;;;;5096336;23;20157;-93
2023/07/14 10:19:03;;;;;;;5.00;1.60;;;25.80;99.90;;;;;;5097478;23;20263;-93
2023/07/14 10:21:06;;;;;;;5.40;1.63;;;26.20;99.90;;;;;;5097519;23;20149;-93
2023/07/14 10:23:15;;;;;;;6.72;1.67;;;26.80;99.90;;;;;;5095838;23;20192;-92
2023/07/14 10:25:17;;;;;;;9.23;1.77;;;27.20;99.90;;;;;;5096005;23;20576;-93
2023/07/14 10:27:29;;;;;;;5.15;1.65;;;27.60;99.90;;;;;;5095955;23;20188;-93
2023/07/14 10:29:46;;;;;;;4.82;1.67;;;27.80;99.90;;;;;;5096198;23;20254;-93
2023/07/14 10:32:00;;;;;;;5.57;1.58;;;28.50;99.90;;;;;;5097973;23;20157;-95
2023/07/14 10:34:12;;;;;;;8.07;1.70;;;28.50;99.90;;;;;;5121090;23;20587;-93
2023/07/14 10:36:20;;;;;;;7.45;2.05;;;28.80;99.90;;;;;;5095932;23;20235;-93
2023/07/14 10:38:38;;;;;;;6.32;1.90;;;29.20;99.90;;;;;;5095566;23;20174;-93
2023/07/14 10:41:09;;;;;;;3.85;1.67;;;29.50;99.90;;;;;;5098721;23;20156;-96
2023/07/14 10:43:22;;;;;;;6.72;1.60;;;29.00;99.90;;;;;;5108279;23;20167;-93